sensor_id;sensor_type;location;lat;lon;timestamp;temperature;humidity
6178;DHT22;3122;48.208;11.174;2023-02-01T00:04:52;2.70;1.00
6178;DHT22;3122;48.208;11.174;2023-02-01T00:09:52;2.70;1.00
6178;DHT22;3122;48.208;11.174;2023-02-01T00:14:53;2.60;1.00
6178;DHT22;3122;48.208;11.174;2023-02-01T00:19:53;2.60;1.00
6178;DHT22;3122;48.208;11.174;2023-02-01T00:24:54;2.60;1.00
6178;DHT22;3122;48.208;11.174;2023-02-01T00:29:55;2.50;1.00
6178;DHT22;3122;48.208;11.174;2023-02-01T00:34:55;2.40;1.00
6178;DHT22;3122;48.208;11.174;2023-02-01T00:39:59;2.30;1.00
6178;DHT22;3122;48.208;11.174;2023-02-01T00:44:59;2.30;1.00
6178;DHT22;3122;48.208;11.174;2023-02-01T00:50:00;2.30;1.00
6178;DHT22;3122;48.208;11.174;2023-02-01T00:55:01;2.30;1.00
6178;DHT22;3122;48.208;11.174;2023-02-01T01:00:02;2.40;1.00
6178;DHT22;3122;48.208;11.174;2023-02-01T01:05:03;2.30;1.00
6178;DHT22;3122;48.208;11.174;2023-02-01T01:10:03;2.40;1.00
6178;DHT22;3122;48.208;11.174;2023-02-01T01:15:05;2.40;1.00
6178;DHT22;3122;48.208;11.174;2023-02-01T01:20:06;2.40;1.00
6178;DHT22;3122;48.208;11.174;2023-02-01T01:25:06;2.40;1.00
6178;DHT22;3122;48.208;11.174;2023-02-01T01:30:08;2.30;1.00
6178;DHT22;3122;48.208;11.174;2023-02-01T01:35:09;2.20;1.00
6178;DHT22;3122;48.208;11.174;2023-02-01T01:40:10;2.20;1.00
6178;DHT22;3122;48.208;11.174;2023-02-01T01:45:22;2.10;1.00
6178;DHT22;3122;48.208;11.174;2023-02-01T01:50:29;2.10;1.00
6178;DHT22;3122;48.208;11.174;2023-02-01T01:55:34;2.10;1.00
6178;DHT22;3122;48.208;11.174;2023-02-01T02:00:36;2.10;1.00
6178;DHT22;3122;48.208;11.174;2023-02-01T02:05:37;2.20;1.00
6178;DHT22;3122;48.208;11.174;2023-02-01T02:10:38;2.10;1.00
6178;DHT22;3122;48.208;11.174;2023-02-01T02:16:23;2.10;1.00
6178;DHT22;3122;48.208;11.174;2023-02-01T02:27:16;2.00;1.00
6178;DHT22;3122;48.208;11.174;2023-02-01T02:32:41;2.10;1.00
6178;DHT22;3122;48.208;11.174;2023-02-01T02:37:54;2.20;1.00
6178;DHT22;3122;48.208;11.174;2023-02-01T02:43:01;2.20;1.00
6178;DHT22;3122;48.208;11.174;2023-02-01T02:48:28;2.30;1.00
6178;DHT22;3122;48.208;11.174;2023-02-01T02:53:35;2.20;1.00
6178;DHT22;3122;48.208;11.174;2023-02-01T02:58:58;2.30;1.00
6178;DHT22;3122;48.208;11.174;2023-02-01T03:04:17;2.30;1.00
6178;DHT22;3122;48.208;11.174;2023-02-01T03:09:27;2.30;1.00
6178;DHT22;3122;48.208;11.174;2023-02-01T03:14:34;2.30;1.00
6178;DHT22;3122;48.208;11.174;2023-02-01T03:19:40;2.30;1.00
6178;DHT22;3122;48.208;11.174;2023-02-01T03:24:57;2.30;1.00
6178;DHT22;3122;48.208;11.174;2023-02-01T03:35:33;2.30;1.00
6178;DHT22;3122;48.208;11.174;2023-02-01T03:40:36;2.30;1.00
6178;DHT22;3122;48.208;11.174;2023-02-01T03:45:43;2.30;1.00
6178;DHT22;3122;48.208;11.174;2023-02-01T03:50:49;2.30;1.00
6178;DHT22;3122;48.208;11.174;2023-02-01T03:55:53;2.30;1.00
6178;DHT22;3122;48.208;11.174;2023-02-01T04:00:58;2.40;1.00
6178;DHT22;3122;48.208;11.174;2023-02-01T04:05:59;2.40;1.00
6178;DHT22;3122;48.208;11.174;2023-02-01T04:10:59;2.40;1.00
6178;DHT22;3122;48.208;11.174;2023-02-01T04:16:00;2.40;1.00
6178;DHT22;3122;48.208;11.174;2023-02-01T04:21:01;2.40;1.00
6178;DHT22;3122;48.208;11.174;2023-02-01T04:26:03;2.40;1.00
6178;DHT22;3122;48.208;11.174;2023-02-01T04:31:04;2.40;1.00
6178;DHT22;3122;48.208;11.174;2023-02-01T04:36:05;2.50;1.00
6178;DHT22;3122;48.208;11.174;2023-02-01T04:41:05;2.50;1.00
6178;DHT22;3122;48.208;11.174;2023-02-01T04:46:06;2.50;1.00
6178;DHT22;3122;48.208;11.174;2023-02-01T04:51:07;2.50;1.00
6178;DHT22;3122;48.208;11.174;2023-02-01T04:56:07;2.50;1.00
6178;DHT22;3122;48.208;11.174;2023-02-01T05:01:08;2.50;1.00
6178;DHT22;3122;48.208;11.174;2023-02-01T05:06:09;2.50;1.00
6178;DHT22;3122;48.208;11.174;2023-02-01T05:11:09;2.50;1.00
6178;DHT22;3122;48.208;11.174;2023-02-01T05:16:28;2.50;1.00
6178;DHT22;3122;48.208;11.174;2023-02-01T05:21:29;2.50;1.00
6178;DHT22;3122;48.208;11.174;2023-02-01T05:26:30;2.40;1.00
6178;DHT22;3122;48.208;11.174;2023-02-01T05:31:31;2.50;1.00
6178;DHT22;3122;48.208;11.174;2023-02-01T05:36:32;2.50;1.00
6178;DHT22;3122;48.208;11.174;2023-02-01T05:41:32;2.50;1.00
6178;DHT22;3122;48.208;11.174;2023-02-01T05:46:34;2.50;1.00
6178;DHT22;3122;48.208;11.174;2023-02-01T05:51:35;2.50;1.00
6178;DHT22;3122;48.208;11.174;2023-02-01T05:56:35;2.50;1.00
6178;DHT22;3122;48.208;11.174;2023-02-01T06:01:37;2.50;1.00
6178;DHT22;3122;48.208;11.174;2023-02-01T06:06:38;2.60;1.00
6178;DHT22;3122;48.208;11.174;2023-02-01T06:11:39;2.50;1.00
6178;DHT22;3122;48.208;11.174;2023-02-01T06:16:40;2.50;1.00
6178;DHT22;3122;48.208;11.174;2023-02-01T06:21:41;2.50;1.00
6178;DHT22;3122;48.208;11.174;2023-02-01T06:26:41;2.60;1.00
6178;DHT22;3122;48.208;11.174;2023-02-01T06:31:42;2.60;1.00
6178;DHT22;3122;48.208;11.174;2023-02-01T06:36:43;2.70;1.00
6178;DHT22;3122;48.208;11.174;2023-02-01T06:41:49;2.70;1.00
6178;DHT22;3122;48.208;11.174;2023-02-01T06:46:50;2.70;1.00
6178;DHT22;3122;48.208;11.174;2023-02-01T06:51:50;2.70;1.00
6178;DHT22;3122;48.208;11.174;2023-02-01T06:56:51;2.60;1.00
6178;DHT22;3122;48.208;11.174;2023-02-01T07:01:52;2.60;1.00
6178;DHT22;3122;48.208;11.174;2023-02-01T07:06:52;2.60;1.00
6178;DHT22;3122;48.208;11.174;2023-02-01T07:11:53;2.70;1.00
6178;DHT22;3122;48.208;11.174;2023-02-01T07:16:53;2.70;1.00
6178;DHT22;3122;48.208;11.174;2023-02-01T07:21:54;2.70;1.00
6178;DHT22;3122;48.208;11.174;2023-02-01T07:26:54;2.80;1.00
6178;DHT22;3122;48.208;11.174;2023-02-01T07:31:55;2.80;1.00
6178;DHT22;3122;48.208;11.174;2023-02-01T07:36:55;2.90;1.00
6178;DHT22;3122;48.208;11.174;2023-02-01T07:41:56;3.00;1.00
6178;DHT22;3122;48.208;11.174;2023-02-01T07:46:56;3.00;1.00
6178;DHT22;3122;48.208;11.174;2023-02-01T07:51:57;3.00;1.00
6178;DHT22;3122;48.208;11.174;2023-02-01T07:56:58;3.10;1.00
6178;DHT22;3122;48.208;11.174;2023-02-01T08:01:58;3.00;1.00
6178;DHT22;3122;48.208;11.174;2023-02-01T08:06:59;3.10;1.00
6178;DHT22;3122;48.208;11.174;2023-02-01T08:11:59;3.10;1.00
6178;DHT22;3122;48.208;11.174;2023-02-01T08:17:01;3.10;1.00
6178;DHT22;3122;48.208;11.174;2023-02-01T08:22:02;3.20;1.00
6178;DHT22;3122;48.208;11.174;2023-02-01T08:27:07;3.20;1.00
6178;DHT22;3122;48.208;11.174;2023-02-01T08:32:07;3.30;1.00
6178;DHT22;3122;48.208;11.174;2023-02-01T08:37:08;3.30;1.00
6178;DHT22;3122;48.208;11.174;2023-02-01T08:42:08;3.30;1.00
6178;DHT22;3122;48.208;11.174;2023-02-01T08:47:28;3.30;1.00
6178;DHT22;3122;48.208;11.174;2023-02-01T08:52:28;3.40;1.00
6178;DHT22;3122;48.208;11.174;2023-02-01T08:57:30;3.40;1.00
6178;DHT22;3122;48.208;11.174;2023-02-01T09:02:31;3.40;1.00
6178;DHT22;3122;48.208;11.174;2023-02-01T09:07:32;3.40;1.00
6178;DHT22;3122;48.208;11.174;2023-02-01T09:12:34;3.50;1.00
6178;DHT22;3122;48.208;11.174;2023-02-01T09:17:35;3.60;1.00
6178;DHT22;3122;48.208;11.174;2023-02-01T09:22:36;3.60;1.00
6178;DHT22;3122;48.208;11.174;2023-02-01T09:27:36;3.60;1.00
6178;DHT22;3122;48.208;11.174;2023-02-01T09:32:37;3.70;1.00
6178;DHT22;3122;48.208;11.174;2023-02-01T09:37:37;3.60;1.00
6178;DHT22;3122;48.208;11.174;2023-02-01T09:43:05;3.70;1.00
6178;DHT22;3122;48.208;11.174;2023-02-01T09:48:19;3.70;1.00
6178;DHT22;3122;48.208;11.174;2023-02-01T09:53:27;3.80;1.00
6178;DHT22;3122;48.208;11.174;2023-02-01T09:58:42;3.80;1.00
6178;DHT22;3122;48.208;11.174;2023-02-01T10:03:45;3.70;1.00
6178;DHT22;3122;48.208;11.174;2023-02-01T10:29:55;3.80;1.00
6178;DHT22;3122;48.208;11.174;2023-02-01T10:35:13;4.00;1.00
6178;DHT22;3122;48.208;11.174;2023-02-01T10:40:23;4.00;1.00
6178;DHT22;3122;48.208;11.174;2023-02-01T10:45:27;4.00;1.00
6178;DHT22;3122;48.208;11.174;2023-02-01T10:50:38;4.00;1.00
6178;DHT22;3122;48.208;11.174;2023-02-01T10:55:47;4.00;1.00
6178;DHT22;3122;48.208;11.174;2023-02-01T11:01:04;4.00;1.00
6178;DHT22;3122;48.208;11.174;2023-02-01T11:06:41;4.00;1.00
6178;DHT22;3122;48.208;11.174;2023-02-01T11:16:49;3.90;1.00
6178;DHT22;3122;48.208;11.174;2023-02-01T11:21:55;3.90;1.00
6178;DHT22;3122;48.208;11.174;2023-02-01T11:26:57;3.90;1.00
6178;DHT22;3122;48.208;11.174;2023-02-01T11:31:59;3.90;1.00
6178;DHT22;3122;48.208;11.174;2023-02-01T11:37:01;3.80;1.00
6178;DHT22;3122;48.208;11.174;2023-02-01T11:42:11;3.80;1.00
6178;DHT22;3122;48.208;11.174;2023-02-01T11:47:26;3.90;1.00
6178;DHT22;3122;48.208;11.174;2023-02-01T12:24:45;3.70;1.00
6178;DHT22;3122;48.208;11.174;2023-02-01T12:41:15;3.90;1.00
6178;DHT22;3122;48.208;11.174;2023-02-01T12:46:27;4.00;1.00
6178;DHT22;3122;48.208;11.174;2023-02-01T12:51:37;4.10;1.00
6178;DHT22;3122;48.208;11.174;2023-02-01T12:56:55;4.20;1.00
6178;DHT22;3122;48.208;11.174;2023-02-01T13:02:21;4.20;1.00
6178;DHT22;3122;48.208;11.174;2023-02-01T13:07:41;4.20;1.00
6178;DHT22;3122;48.208;11.174;2023-02-01T13:12:54;4.10;1.00
6178;DHT22;3122;48.208;11.174;2023-02-01T13:18:00;3.90;1.00
6178;DHT22;3122;48.208;11.174;2023-02-01T13:23:09;3.90;1.00
6178;DHT22;3122;48.208;11.174;2023-02-01T13:28:16;3.80;1.00
6178;DHT22;3122;48.208;11.174;2023-02-01T13:44:10;3.60;1.00
6178;DHT22;3122;48.208;11.174;2023-02-01T13:49:27;3.60;1.00
6178;DHT22;3122;48.208;11.174;2023-02-01T13:54:38;3.70;1.00
6178;DHT22;3122;48.208;11.174;2023-02-01T14:04:48;3.70;1.00
6178;DHT22;3122;48.208;11.174;2023-02-01T14:09:49;3.70;1.00
6178;DHT22;3122;48.208;11.174;2023-02-01T14:14:50;3.80;1.00
6178;DHT22;3122;48.208;11.174;2023-02-01T14:26:03;3.70;1.00
6178;DHT22;3122;48.208;11.174;2023-02-01T14:31:15;3.70;1.00
6178;DHT22;3122;48.208;11.174;2023-02-01T14:36:17;3.70;1.00
6178;DHT22;3122;48.208;11.174;2023-02-01T14:41:24;3.70;1.00
6178;DHT22;3122;48.208;11.174;2023-02-01T14:52:11;3.90;1.00
6178;DHT22;3122;48.208;11.174;2023-02-01T14:57:18;3.90;1.00
6178;DHT22;3122;48.208;11.174;2023-02-01T15:02:25;4.00;1.00
6178;DHT22;3122;48.208;11.174;2023-02-01T15:07:27;3.90;1.00
6178;DHT22;3122;48.208;11.174;2023-02-01T15:12:28;3.90;1.00
6178;DHT22;3122;48.208;11.174;2023-02-01T15:17:32;3.90;1.00
6178;DHT22;3122;48.208;11.174;2023-02-01T15:22:35;3.90;1.00
6178;DHT22;3122;48.208;11.174;2023-02-01T15:27:36;3.90;1.00
6178;DHT22;3122;48.208;11.174;2023-02-01T15:32:39;3.80;1.00
6178;DHT22;3122;48.208;11.174;2023-02-01T15:37:39;3.70;1.00
6178;DHT22;3122;48.208;11.174;2023-02-01T15:42:55;3.60;1.00
6178;DHT22;3122;48.208;11.174;2023-02-01T15:47:58;3.50;1.00
6178;DHT22;3122;48.208;11.174;2023-02-01T15:52:59;3.40;1.00
6178;DHT22;3122;48.208;11.174;2023-02-01T15:58:00;3.40;1.00
6178;DHT22;3122;48.208;11.174;2023-02-01T16:03:05;3.30;1.00
6178;DHT22;3122;48.208;11.174;2023-02-01T16:08:24;3.30;1.00
6178;DHT22;3122;48.208;11.174;2023-02-01T16:13:25;3.30;1.00
6178;DHT22;3122;48.208;11.174;2023-02-01T16:18:25;3.20;1.00
6178;DHT22;3122;48.208;11.174;2023-02-01T16:23:26;3.30;1.00
6178;DHT22;3122;48.208;11.174;2023-02-01T16:28:27;3.20;1.00
6178;DHT22;3122;48.208;11.174;2023-02-01T16:33:28;3.20;1.00
6178;DHT22;3122;48.208;11.174;2023-02-01T16:38:28;3.30;1.00
6178;DHT22;3122;48.208;11.174;2023-02-01T16:43:29;3.30;1.00
6178;DHT22;3122;48.208;11.174;2023-02-01T16:48:34;3.30;1.00
6178;DHT22;3122;48.208;11.174;2023-02-01T16:53:35;3.30;1.00
6178;DHT22;3122;48.208;11.174;2023-02-01T16:58:36;3.30;1.00
6178;DHT22;3122;48.208;11.174;2023-02-01T17:03:37;3.40;1.00
6178;DHT22;3122;48.208;11.174;2023-02-01T17:08:41;3.50;1.00
6178;DHT22;3122;48.208;11.174;2023-02-01T17:13:42;3.60;1.00
6178;DHT22;3122;48.208;11.174;2023-02-01T17:18:54;3.50;1.00
6178;DHT22;3122;48.208;11.174;2023-02-01T17:23:55;3.60;1.00
6178;DHT22;3122;48.208;11.174;2023-02-01T17:28:58;3.60;1.00
6178;DHT22;3122;48.208;11.174;2023-02-01T17:33:58;3.60;1.00
6178;DHT22;3122;48.208;11.174;2023-02-01T17:38:59;3.60;1.00
6178;DHT22;3122;48.208;11.174;2023-02-01T17:43:59;3.60;1.00
6178;DHT22;3122;48.208;11.174;2023-02-01T17:49:00;3.60;1.00
6178;DHT22;3122;48.208;11.174;2023-02-01T17:54:03;3.60;1.00
6178;DHT22;3122;48.208;11.174;2023-02-01T17:59:14;3.70;1.00
6178;DHT22;3122;48.208;11.174;2023-02-01T18:04:17;3.70;1.00
6178;DHT22;3122;48.208;11.174;2023-02-01T18:09:18;3.60;1.00
6178;DHT22;3122;48.208;11.174;2023-02-01T18:14:18;3.60;1.00
6178;DHT22;3122;48.208;11.174;2023-02-01T18:19:19;3.70;1.00
6178;DHT22;3122;48.208;11.174;2023-02-01T18:24:19;3.70;1.00
6178;DHT22;3122;48.208;11.174;2023-02-01T18:29:22;3.60;1.00
6178;DHT22;3122;48.208;11.174;2023-02-01T18:34:23;3.60;1.00
6178;DHT22;3122;48.208;11.174;2023-02-01T18:39:24;3.60;1.00
6178;DHT22;3122;48.208;11.174;2023-02-01T18:44:25;3.60;1.00
6178;DHT22;3122;48.208;11.174;2023-02-01T18:49:25;3.60;1.00
6178;DHT22;3122;48.208;11.174;2023-02-01T18:54:26;3.60;1.00
6178;DHT22;3122;48.208;11.174;2023-02-01T18:59:27;3.60;1.00
6178;DHT22;3122;48.208;11.174;2023-02-01T19:04:28;3.60;1.00
6178;DHT22;3122;48.208;11.174;2023-02-01T19:09:29;3.60;1.00
6178;DHT22;3122;48.208;11.174;2023-02-01T19:14:31;3.60;1.00
6178;DHT22;3122;48.208;11.174;2023-02-01T19:19:32;3.60;1.00
6178;DHT22;3122;48.208;11.174;2023-02-01T19:24:32;3.70;1.00
6178;DHT22;3122;48.208;11.174;2023-02-01T19:29:33;3.70;1.00
6178;DHT22;3122;48.208;11.174;2023-02-01T19:34:33;3.70;1.00
6178;DHT22;3122;48.208;11.174;2023-02-01T19:39:35;3.70;1.00
6178;DHT22;3122;48.208;11.174;2023-02-01T19:44:37;3.70;1.00
6178;DHT22;3122;48.208;11.174;2023-02-01T19:49:37;3.70;1.00
6178;DHT22;3122;48.208;11.174;2023-02-01T19:54:38;3.70;1.00
6178;DHT22;3122;48.208;11.174;2023-02-01T19:59:38;3.70;1.00
6178;DHT22;3122;48.208;11.174;2023-02-01T20:04:39;3.70;1.00
6178;DHT22;3122;48.208;11.174;2023-02-01T20:09:40;3.60;1.00
6178;DHT22;3122;48.208;11.174;2023-02-01T20:14:43;3.70;1.00
6178;DHT22;3122;48.208;11.174;2023-02-01T20:19:44;3.70;1.00
6178;DHT22;3122;48.208;11.174;2023-02-01T20:24:45;3.70;1.00
6178;DHT22;3122;48.208;11.174;2023-02-01T20:29:45;3.70;1.00
6178;DHT22;3122;48.208;11.174;2023-02-01T20:34:46;3.70;1.00
6178;DHT22;3122;48.208;11.174;2023-02-01T20:39:50;3.70;1.00
6178;DHT22;3122;48.208;11.174;2023-02-01T20:44:50;3.70;1.00
6178;DHT22;3122;48.208;11.174;2023-02-01T20:49:51;3.70;1.00
6178;DHT22;3122;48.208;11.174;2023-02-01T20:54:51;3.70;1.00
6178;DHT22;3122;48.208;11.174;2023-02-01T20:59:52;3.70;1.00
6178;DHT22;3122;48.208;11.174;2023-02-01T21:04:53;3.70;1.00
6178;DHT22;3122;48.208;11.174;2023-02-01T21:09:53;3.70;1.00
6178;DHT22;3122;48.208;11.174;2023-02-01T21:14:55;3.70;1.00
6178;DHT22;3122;48.208;11.174;2023-02-01T21:19:57;3.70;1.00
6178;DHT22;3122;48.208;11.174;2023-02-01T21:24:57;3.70;1.00
6178;DHT22;3122;48.208;11.174;2023-02-01T21:29:59;3.70;1.00
6178;DHT22;3122;48.208;11.174;2023-02-01T21:35:00;3.70;1.00
6178;DHT22;3122;48.208;11.174;2023-02-01T21:40:00;3.70;1.00
6178;DHT22;3122;48.208;11.174;2023-02-01T21:45:01;3.70;1.00
6178;DHT22;3122;48.208;11.174;2023-02-01T21:50:01;3.60;1.00
6178;DHT22;3122;48.208;11.174;2023-02-01T21:55:02;3.60;1.00
6178;DHT22;3122;48.208;11.174;2023-02-01T22:00:04;3.60;1.00
6178;DHT22;3122;48.208;11.174;2023-02-01T22:05:07;3.60;1.00
6178;DHT22;3122;48.208;11.174;2023-02-01T22:10:09;3.60;1.00
6178;DHT22;3122;48.208;11.174;2023-02-01T22:15:11;3.60;1.00
6178;DHT22;3122;48.208;11.174;2023-02-01T22:20:12;3.60;1.00
6178;DHT22;3122;48.208;11.174;2023-02-01T22:25:13;3.60;1.00
6178;DHT22;3122;48.208;11.174;2023-02-01T22:30:13;3.60;1.00
6178;DHT22;3122;48.208;11.174;2023-02-01T22:35:14;3.60;1.00
6178;DHT22;3122;48.208;11.174;2023-02-01T22:40:15;3.50;1.00
6178;DHT22;3122;48.208;11.174;2023-02-01T22:45:15;3.50;1.00
6178;DHT22;3122;48.208;11.174;2023-02-01T22:50:16;3.60;1.00
6178;DHT22;3122;48.208;11.174;2023-02-01T22:55:17;3.60;1.00
6178;DHT22;3122;48.208;11.174;2023-02-01T23:00:17;3.60;1.00
6178;DHT22;3122;48.208;11.174;2023-02-01T23:05:19;3.60;1.00
6178;DHT22;3122;48.208;11.174;2023-02-01T23:10:19;3.60;1.00
6178;DHT22;3122;48.208;11.174;2023-02-01T23:15:21;3.50;1.00
6178;DHT22;3122;48.208;11.174;2023-02-01T23:20:21;3.60;1.00
6178;DHT22;3122;48.208;11.174;2023-02-01T23:25:22;3.50;1.00
6178;DHT22;3122;48.208;11.174;2023-02-01T23:30:23;3.50;1.00
6178;DHT22;3122;48.208;11.174;2023-02-01T23:35:23;3.60;1.00
6178;DHT22;3122;48.208;11.174;2023-02-01T23:40:24;3.60;1.00
6178;DHT22;3122;48.208;11.174;2023-02-01T23:45:24;3.60;1.00
6178;DHT22;3122;48.208;11.174;2023-02-01T23:50:25;3.60;1.00
6178;DHT22;3122;48.208;11.174;2023-02-01T23:55:26;3.60;1.00
